PEV107 LOWW-LSZR
Flight info
| Callsign | PEV107 |
|---|---|
| Flight time | N/A |
| Altitude | 32000 |
| Route | SOVIL DCT SITNI DCT BAGSI DCT MATIG DCT TRAUN/N0285F120 L856 KPT |
| Aircraft | E170/M-SDE3GILORVW/S |
Departure
| Time | 2026-04-23 20:02 |
|---|---|
| Airport | Vienna International Airport (LOWW) |
Arrival
| Time | N/A |
|---|---|
| Airport | Sankt Gallen Altenrhein Airport (LSZR) |
| Time | Latitude | Longitude | Altitude | Speed | Heading |
|---|---|---|---|---|---|
| 2026-04-23 19:44 | 48.12006 | 16.55874 | 608 ft | 0 kts | 296° |
| 2026-04-23 19:53 | 48.12006 | 16.55875 | 607 ft | 1 kts | 296° |
| 2026-04-23 19:53 | 48.11992 | 16.55903 | 612 ft | 4 kts | 321° |
| 2026-04-23 19:53 | 48.11969 | 16.55921 | 613 ft | 4 kts | 343° |
| 2026-04-23 19:53 | 48.11944 | 16.55933 | 616 ft | 4 kts | 322° |
| 2026-04-23 19:54 | 48.11935 | 16.55931 | 620 ft | 2 kts | 206° |
| 2026-04-23 19:56 | 48.11933 | 16.55929 | 620 ft | 2 kts | 206° |
| 2026-04-23 19:56 | 48.11896 | 16.55902 | 607 ft | 9 kts | 206° |
| 2026-04-23 19:57 | 48.11830 | 16.55854 | 607 ft | 12 kts | 206° |
| 2026-04-23 19:57 | 48.11746 | 16.55796 | 607 ft | 15 kts | 192° |
| 2026-04-23 19:57 | 48.11681 | 16.55829 | 607 ft | 16 kts | 124° |
| 2026-04-23 19:57 | 48.11609 | 16.56045 | 613 ft | 19 kts | 116° |
| 2026-04-23 19:58 | 48.11547 | 16.56238 | 611 ft | 22 kts | 115° |
| 2026-04-23 19:58 | 48.11477 | 16.56452 | 612 ft | 24 kts | 116° |
| 2026-04-23 19:58 | 48.11401 | 16.56689 | 607 ft | 26 kts | 117° |
| 2026-04-23 19:58 | 48.11327 | 16.56912 | 615 ft | 23 kts | 116° |
| 2026-04-23 19:59 | 48.11262 | 16.57112 | 615 ft | 21 kts | 116° |
| 2026-04-23 19:59 | 48.11205 | 16.57288 | 607 ft | 19 kts | 116° |
| 2026-04-23 19:59 | 48.11148 | 16.57465 | 613 ft | 11 kts | 115° |
| 2026-04-23 19:59 | 48.11111 | 16.57575 | 615 ft | 8 kts | 117° |
| 2026-04-23 20:00 | 48.11071 | 16.57647 | 610 ft | 8 kts | 164° |
| 2026-04-23 20:00 | 48.11019 | 16.57630 | 612 ft | 8 kts | 204° |
| 2026-04-23 20:00 | 48.10955 | 16.57582 | 612 ft | 12 kts | 207° |
| 2026-04-23 20:00 | 48.10936 | 16.57471 | 607 ft | 12 kts | 293° |
| 2026-04-23 20:01 | 48.10943 | 16.57447 | 612 ft | 0 kts | 295° |
| 2026-04-23 20:02 | 48.10955 | 16.57408 | 607 ft | 17 kts | 296° |
| 2026-04-23 20:02 | 48.11139 | 16.56843 | 610 ft | 103 kts | 296° |
| 2026-04-23 20:02 | 48.11546 | 16.55568 | 871 ft | 152 kts | 298° |
| 2026-04-23 20:02 | 48.11943 | 16.54011 | 1789 ft | 168 kts | 286° |
| 2026-04-23 20:03 | 48.11862 | 16.52219 | 2725 ft | 180 kts | 271° |
| 2026-04-23 20:03 | 48.11688 | 16.50343 | 3510 ft | 186 kts | 270° |
| 2026-04-23 20:03 | 48.11182 | 16.48379 | 4070 ft | 218 kts | 249° |
| 2026-04-23 20:03 | 48.10289 | 16.46445 | 4940 ft | 238 kts | 242° |
| 2026-04-23 20:04 | 48.09187 | 16.44427 | 5474 ft | 267 kts | 238° |
| 2026-04-23 20:04 | 48.08019 | 16.42177 | 6278 ft | 278 kts | 241° |
| 2026-04-23 20:04 | 48.06866 | 16.39832 | 7235 ft | 282 kts | 240° |
| 2026-04-23 20:04 | 48.05698 | 16.37457 | 8148 ft | 286 kts | 240° |
| 2026-04-23 20:05 | 48.04899 | 16.35837 | 8775 ft | 288 kts | 240° |
| 2026-04-23 20:05 | 48.03449 | 16.32487 | 9860 ft | 290 kts | 256° |
| 2026-04-23 20:05 | 48.03191 | 16.29538 | 10480 ft | 293 kts | 276° |
| 2026-04-23 20:05 | 48.03259 | 16.26415 | 11042 ft | 308 kts | 278° |
| 2026-04-23 20:06 | 48.03341 | 16.23166 | 11795 ft | 317 kts | 277° |
| 2026-04-23 20:06 | 48.03396 | 16.19844 | 12715 ft | 323 kts | 276° |
| 2026-04-23 20:06 | 48.03440 | 16.16457 | 13669 ft | 330 kts | 276° |
| 2026-04-23 20:06 | 48.03481 | 16.13000 | 14594 ft | 336 kts | 275° |
| 2026-04-23 20:07 | 48.03521 | 16.09480 | 15540 ft | 342 kts | 275° |
| 2026-04-23 20:07 | 48.03549 | 16.07109 | 16147 ft | 346 kts | 275° |
| 2026-04-23 20:07 | 48.03595 | 16.03486 | 17034 ft | 352 kts | 275° |
| 2026-04-23 20:07 | 48.03646 | 15.99749 | 17893 ft | 359 kts | 275° |
| 2026-04-23 20:08 | 48.03697 | 15.96039 | 18692 ft | 365 kts | 275° |
| 2026-04-23 20:08 | 48.03751 | 15.92221 | 19446 ft | 371 kts | 275° |
| 2026-04-23 20:08 | 48.03808 | 15.88328 | 20149 ft | 378 kts | 275° |
| 2026-04-23 20:08 | 48.03869 | 15.84365 | 20869 ft | 385 kts | 275° |
| 2026-04-23 20:09 | 48.03928 | 15.80327 | 21562 ft | 391 kts | 276° |
| 2026-04-23 20:09 | 48.03994 | 15.76236 | 22238 ft | 397 kts | 276° |
| 2026-04-23 20:09 | 48.04062 | 15.72088 | 22889 ft | 402 kts | 276° |
| 2026-04-23 20:09 | 48.04131 | 15.67884 | 23545 ft | 408 kts | 276° |
| 2026-04-23 20:10 | 48.04203 | 15.63623 | 24145 ft | 412 kts | 276° |
| 2026-04-23 20:10 | 48.04274 | 15.59316 | 24762 ft | 416 kts | 276° |
| 2026-04-23 20:10 | 48.04346 | 15.54986 | 25383 ft | 419 kts | 276° |
| 2026-04-23 20:10 | 48.04418 | 15.50617 | 25977 ft | 423 kts | 276° |
| 2026-04-23 20:11 | 48.04493 | 15.46200 | 26519 ft | 427 kts | 276° |
| 2026-04-23 20:11 | 48.04569 | 15.41751 | 27072 ft | 431 kts | 276° |
| 2026-04-23 20:11 | 48.04646 | 15.37264 | 27606 ft | 434 kts | 276° |
| 2026-04-23 20:11 | 48.04722 | 15.32725 | 28055 ft | 440 kts | 276° |
| 2026-04-23 20:12 | 48.04798 | 15.28136 | 28534 ft | 444 kts | 276° |
| 2026-04-23 20:12 | 48.04870 | 15.23514 | 29036 ft | 447 kts | 276° |
| 2026-04-23 20:12 | 48.04941 | 15.18849 | 29525 ft | 450 kts | 276° |
| 2026-04-23 20:12 | 48.05012 | 15.14159 | 30011 ft | 453 kts | 276° |
| 2026-04-23 20:13 | 48.05080 | 15.09435 | 30434 ft | 457 kts | 276° |
| 2026-04-23 20:13 | 48.05148 | 15.04678 | 30813 ft | 459 kts | 276° |
| 2026-04-23 20:13 | 48.05214 | 14.99949 | 31147 ft | 463 kts | 276° |
| 2026-04-23 20:13 | 48.05279 | 14.95064 | 31534 ft | 466 kts | 276° |
| 2026-04-23 20:14 | 48.05341 | 14.90212 | 31903 ft | 468 kts | 276° |
| 2026-04-23 20:14 | 48.05402 | 14.85331 | 32289 ft | 470 kts | 276° |
| 2026-04-23 20:14 | 48.05461 | 14.80393 | 32277 ft | 480 kts | 275° |
| 2026-04-23 20:15 | 48.05542 | 14.70243 | 32161 ft | 493 kts | 275° |
| 2026-04-23 20:15 | 48.05615 | 14.60043 | 32171 ft | 495 kts | 275° |
| 2026-04-23 20:16 | 48.05679 | 14.49715 | 32184 ft | 497 kts | 275° |
| 2026-04-23 20:16 | 48.05735 | 14.39386 | 32192 ft | 497 kts | 275° |
| 2026-04-23 20:17 | 48.05784 | 14.29051 | 32192 ft | 497 kts | 275° |
| 2026-04-23 20:17 | 48.05822 | 14.18723 | 32189 ft | 497 kts | 274° |
| 2026-04-23 20:18 | 48.05851 | 14.08376 | 32188 ft | 498 kts | 274° |
| 2026-04-23 20:18 | 48.05872 | 13.98104 | 32477 ft | 488 kts | 274° |
| 2026-04-23 20:18 | 48.05884 | 13.92939 | 31979 ft | 499 kts | 273° |
| 2026-04-23 20:19 | 48.05887 | 13.87765 | 32289 ft | 498 kts | 274° |
| 2026-04-23 20:19 | 48.05888 | 13.82552 | 32186 ft | 503 kts | 274° |
| 2026-04-23 20:19 | 48.05886 | 13.77317 | 32207 ft | 504 kts | 274° |
| 2026-04-23 20:20 | 48.05877 | 13.66841 | 32213 ft | 504 kts | 274° |
| 2026-04-23 20:20 | 48.05860 | 13.56436 | 32208 ft | 504 kts | 273° |
| 2026-04-23 20:21 | 48.05209 | 13.45958 | 32226 ft | 508 kts | 265° |
| 2026-04-23 20:21 | 48.04289 | 13.35488 | 32217 ft | 508 kts | 265° |
| 2026-04-23 20:22 | 48.03385 | 13.25036 | 32215 ft | 507 kts | 265° |
| 2026-04-23 20:22 | 48.02481 | 13.14588 | 32222 ft | 507 kts | 265° |
| 2026-04-23 20:23 | 48.01570 | 13.04145 | 32220 ft | 507 kts | 265° |
| 2026-04-23 20:23 | 48.00649 | 12.93707 | 32227 ft | 507 kts | 265° |
| 2026-04-23 20:24 | 47.99718 | 12.83277 | 32225 ft | 507 kts | 265° |
| 2026-04-23 20:24 | 47.98781 | 12.72875 | 32231 ft | 505 kts | 264° |
| 2026-04-23 20:25 | 47.97834 | 12.62476 | 32234 ft | 505 kts | 264° |
| 2026-04-23 20:25 | 47.96877 | 12.52091 | 32237 ft | 505 kts | 264° |
| 2026-04-23 20:26 | 47.95907 | 12.41681 | 32240 ft | 507 kts | 264° |
| 2026-04-23 20:26 | 47.94928 | 12.31269 | 32243 ft | 507 kts | 264° |
| 2026-04-23 20:27 | 47.93940 | 12.20857 | 32246 ft | 507 kts | 264° |
| 2026-04-23 20:27 | 47.92936 | 12.10458 | 32249 ft | 507 kts | 264° |
| 2026-04-23 20:28 | 47.91929 | 12.00135 | 32249 ft | 507 kts | 264° |
| 2026-04-23 20:28 | 47.90907 | 11.89749 | 32258 ft | 505 kts | 263° |
| 2026-04-23 20:29 | 47.89877 | 11.79388 | 32256 ft | 505 kts | 263° |
| 2026-04-23 20:29 | 47.88846 | 11.69029 | 32252 ft | 505 kts | 263° |
| 2026-04-23 20:30 | 47.87810 | 11.58678 | 32258 ft | 505 kts | 263° |
| 2026-04-23 20:30 | 47.86237 | 11.43167 | 32274 ft | 504 kts | 263° |
| 2026-04-23 20:31 | 47.85178 | 11.32849 | 32260 ft | 504 kts | 263° |
| 2026-04-23 20:31 | 47.84109 | 11.22537 | 32277 ft | 504 kts | 263° |
| 2026-04-23 20:32 | 47.83032 | 11.12240 | 32300 ft | 503 kts | 262° |
| 2026-04-23 20:32 | 47.82488 | 11.07076 | 31900 ft | 503 kts | 262° |
| 2026-04-23 20:32 | 47.81945 | 11.02004 | 31378 ft | 489 kts | 262° |
| 2026-04-23 20:33 | 47.81413 | 10.97059 | 30918 ft | 482 kts | 262° |
| 2026-04-23 20:33 | 47.80878 | 10.92085 | 30423 ft | 492 kts | 262° |
| 2026-04-23 20:33 | 47.80333 | 10.87027 | 29808 ft | 498 kts | 262° |
| 2026-04-23 20:33 | 47.79780 | 10.81935 | 29188 ft | 500 kts | 262° |
| 2026-04-23 20:34 | 47.79224 | 10.76836 | 28544 ft | 498 kts | 262° |
| 2026-04-23 20:34 | 47.78670 | 10.71787 | 27916 ft | 492 kts | 262° |
| 2026-04-23 20:34 | 47.78120 | 10.66786 | 27308 ft | 487 kts | 262° |
| 2026-04-23 20:34 | 47.77574 | 10.61841 | 26719 ft | 482 kts | 262° |
| 2026-04-23 20:35 | 47.77039 | 10.57008 | 26138 ft | 478 kts | 262° |
| 2026-04-23 20:35 | 47.76500 | 10.52171 | 25585 ft | 472 kts | 262° |
| 2026-04-23 20:35 | 47.75965 | 10.47382 | 25049 ft | 468 kts | 262° |
| 2026-04-23 20:35 | 47.75435 | 10.42651 | 24521 ft | 461 kts | 262° |
| 2026-04-23 20:36 | 47.74909 | 10.37982 | 24016 ft | 456 kts | 262° |
| 2026-04-23 20:36 | 47.74275 | 10.33383 | 23450 ft | 454 kts | 257° |
| 2026-04-23 20:36 | 47.73275 | 10.28952 | 22869 ft | 450 kts | 250° |
| 2026-04-23 20:36 | 47.72132 | 10.24648 | 22263 ft | 446 kts | 250° |
| 2026-04-23 20:37 | 47.71018 | 10.20385 | 21667 ft | 440 kts | 250° |
| 2026-04-23 20:37 | 47.69946 | 10.16162 | 21097 ft | 435 kts | 251° |
| 2026-04-23 20:37 | 47.68901 | 10.11985 | 20536 ft | 430 kts | 251° |
| 2026-04-23 20:37 | 47.67873 | 10.07854 | 20000 ft | 424 kts | 251° |
| 2026-04-23 20:38 | 47.66860 | 10.03774 | 19479 ft | 419 kts | 251° |